Time;durP1;ratioP1;P1;durP2;ratioP2;P2;SDS_P1;SDS_P2;PMS_P1;PMS_P2;Temp;Humidity;BMP_temperature;BMP_pressure;BME280_temperature;BME280_humidity;BME280_pressure;Samples;Min_cycle;Max_cycle;Signal;HPM_P1;HPM_P2
2022/03/14 00:00:24;;;;;;;19.30;11.18;;;2.60;99.90;;;;;;5093272;28;20024;-70
2022/03/14 00:02:51;;;;;;;29.65;11.55;;;2.60;99.90;;;;;;5094823;28;20023;-70
2022/03/14 00:05:17;;;;;;;20.02;10.75;;;2.50;99.90;;;;;;5094379;28;20032;-70
2022/03/14 00:07:44;;;;;;;21.20;10.98;;;2.50;99.90;;;;;;5095264;28;20024;-70
2022/03/14 00:10:13;;;;;;;21.98;10.25;;;2.40;99.90;;;;;;5094576;28;20020;-70
2022/03/14 00:12:42;;;;;;;22.50;10.50;;;2.30;99.90;;;;;;5094363;28;20016;-70
2022/03/14 00:15:11;;;;;;;22.42;10.20;;;2.30;99.90;;;;;;5094395;28;20499;-70
2022/03/14 00:17:37;;;;;;;21.50;10.45;;;2.30;99.90;;;;;;5094280;28;20031;-70
2022/03/14 00:20:04;;;;;;;31.60;10.88;;;2.20;99.90;;;;;;5094117;28;20036;-70
2022/03/14 00:22:32;;;;;;;23.35;10.98;;;2.10;99.90;;;;;;5094046;28;20500;-70
2022/03/14 00:24:58;;;;;;;24.40;10.93;;;2.00;99.90;;;;;;5094237;28;20112;-70
2022/03/14 00:27:23;;;;;;;19.70;9.90;;;1.90;99.90;;;;;;5094023;28;20091;-70
2022/03/14 00:29:49;;;;;;;24.25;11.27;;;1.90;99.90;;;;;;5094068;28;20035;-70
2022/03/14 00:32:14;;;;;;;23.52;11.85;;;1.80;99.90;;;;;;5094096;28;20036;-70
2022/03/14 00:34:40;;;;;;;25.55;10.35;;;1.80;99.90;;;;;;5094327;28;20024;-70
2022/03/14 00:37:05;;;;;;;25.48;10.90;;;1.70;99.90;;;;;;5094500;28;20077;-70
2022/03/14 00:39:31;;;;;;;19.90;10.25;;;1.80;99.90;;;;;;5094108;28;20106;-70
2022/03/14 00:41:57;;;;;;;23.85;10.75;;;1.70;99.90;;;;;;5093920;28;20162;-70
2022/03/14 00:44:23;;;;;;;19.30;9.90;;;1.70;99.90;;;;;;5093894;28;20028;-70
2022/03/14 00:46:50;;;;;;;23.40;10.25;;;1.70;99.90;;;;;;5094007;28;20024;-70
2022/03/14 00:49:15;;;;;;;26.40;10.75;;;1.70;99.90;;;;;;5094110;28;20384;-70
2022/03/14 00:51:42;;;;;;;23.42;10.55;;;1.60;99.90;;;;;;5093922;28;20035;-70
2022/03/14 00:54:07;;;;;;;23.88;11.85;;;1.50;99.90;;;;;;5093951;28;20523;-70
2022/03/14 00:56:33;;;;;;;18.45;10.15;;;1.50;99.90;;;;;;5093943;28;20020;-70
2022/03/14 00:58:59;;;;;;;24.13;10.80;;;1.40;99.90;;;;;;5093849;28;20035;-70
2022/03/14 01:01:28;;;;;;;19.75;9.50;;;1.50;99.90;;;;;;5093707;28;20020;-70
2022/03/14 01:03:54;;;;;;;22.92;10.93;;;1.50;99.90;;;;;;5094101;28;20472;-70
2022/03/14 01:06:21;;;;;;;21.10;10.90;;;1.40;99.90;;;;;;5093800;28;20020;-71
2022/03/14 01:08:46;;;;;;;20.52;10.55;;;1.40;99.90;;;;;;5093691;28;20038;-70
2022/03/14 01:11:12;;;;;;;22.10;10.15;;;1.40;99.90;;;;;;5093839;28;20099;-70
2022/03/14 01:13:37;;;;;;;21.67;10.27;;;1.30;99.90;;;;;;5093702;28;20472;-70
2022/03/14 01:16:03;;;;;;;19.27;10.07;;;1.20;99.90;;;;;;5093762;28;20028;-70
2022/03/14 01:18:29;;;;;;;28.17;11.15;;;1.20;99.90;;;;;;5093455;28;20506;-70
2022/03/14 01:20:55;;;;;;;24.45;11.27;;;1.10;99.90;;;;;;5093565;28;20035;-70
2022/03/14 01:23:21;;;;;;;20.38;10.40;;;1.10;99.90;;;;;;5093875;28;20020;-70
2022/03/14 01:25:47;;;;;;;22.90;11.00;;;1.10;99.90;;;;;;5093712;28;20028;-70
2022/03/14 01:28:12;;;;;;;20.63;10.52;;;1.00;99.90;;;;;;5093532;28;20519;-70
2022/03/14 01:30:40;;;;;;;22.80;12.05;;;1.00;99.90;;;;;;5093861;28;20024;-70
2022/03/14 01:33:05;;;;;;;19.42;9.52;;;1.00;99.90;;;;;;5096549;28;20031;-70
2022/03/14 01:35:31;;;;;;;24.92;10.85;;;0.90;99.90;;;;;;5097162;28;20103;-70
2022/03/14 01:37:57;;;;;;;22.15;11.35;;;0.90;99.90;;;;;;5096049;28;20046;-70
2022/03/14 01:40:24;;;;;;;22.58;10.55;;;0.90;99.90;;;;;;5097396;28;20020;-70
2022/03/14 01:42:50;;;;;;;24.38;11.15;;;0.80;99.90;;;;;;5096997;28;20467;-70
2022/03/14 01:45:17;;;;;;;21.83;10.52;;;0.80;99.90;;;;;;5096912;28;20103;-70
2022/03/14 01:47:43;;;;;;;26.13;11.10;;;0.90;99.90;;;;;;5096773;28;20020;-70
2022/03/14 01:50:10;;;;;;;24.30;10.45;;;0.90;99.90;;;;;;5096848;28;20103;-70
2022/03/14 01:52:35;;;;;;;20.90;10.60;;;0.80;99.90;;;;;;5097005;28;20060;-70
2022/03/14 01:55:02;;;;;;;31.50;11.93;;;0.80;99.90;;;;;;5096781;28;20020;-70
2022/03/14 01:57:29;;;;;;;19.48;10.05;;;0.80;99.90;;;;;;5096685;28;20491;-70
2022/03/14 01:59:56;;;;;;;28.33;10.82;;;0.80;99.90;;;;;;5096682;28;20028;-70
2022/03/14 02:02:21;;;;;;;25.42;10.00;;;0.80;99.90;;;;;;5096588;28;20028;-70
2022/03/14 02:04:47;;;;;;;28.48;11.10;;;0.80;99.90;;;;;;5096673;28;20043;-70
2022/03/14 02:07:13;;;;;;;20.08;10.68;;;0.80;99.90;;;;;;5096459;28;20439;-70
2022/03/14 02:09:39;;;;;;;24.40;10.68;;;0.80;99.90;;;;;;5095222;28;20093;-70
2022/03/14 02:12:07;;;;;;;24.10;10.50;;;0.70;99.90;;;;;;5095303;28;20070;-70
2022/03/14 02:14:35;;;;;;;21.95;10.10;;;0.70;99.90;;;;;;5096411;28;20098;-70
2022/03/14 02:17:00;;;;;;;22.95;10.52;;;0.70;99.90;;;;;;5096629;28;20023;-70
2022/03/14 02:19:26;;;;;;;29.77;10.55;;;0.70;99.90;;;;;;5096089;28;20046;-70
2022/03/14 02:21:52;;;;;;;27.05;10.43;;;0.80;99.90;;;;;;5096151;28;20039;-70
2022/03/14 02:24:17;;;;;;;21.45;9.93;;;0.80;99.90;;;;;;5096267;28;20020;-70
2022/03/14 02:26:44;;;;;;;20.95;10.20;;;0.80;99.90;;;;;;5097083;28;20016;-70
2022/03/14 02:29:11;;;;;;;19.33;9.77;;;0.80;99.90;;;;;;5097258;28;20388;-70
2022/03/14 02:31:38;;;;;;;23.42;9.80;;;0.80;99.90;;;;;;5096531;28;20028;-70
2022/03/14 02:34:05;;;;;;;24.63;10.35;;;0.70;99.90;;;;;;5096004;28;20430;-70
2022/03/14 02:36:30;;;;;;;23.38;9.82;;;0.50;99.90;;;;;;5096242;28;20487;-70
2022/03/14 02:38:56;;;;;;;24.00;10.90;;;0.40;99.90;;;;;;5096162;28;20028;-70
2022/03/14 02:41:23;;;;;;;23.35;9.98;;;0.40;99.90;;;;;;5095845;28;20063;-70
2022/03/14 02:43:49;;;;;;;25.38;9.98;;;0.50;99.90;;;;;;5093462;28;20107;-70
2022/03/14 02:46:15;;;;;;;20.75;9.65;;;0.70;99.90;;;;;;5095832;28;20050;-70
2022/03/14 02:48:41;;;;;;;27.45;11.18;;;0.80;99.90;;;;;;5095680;28;20174;-70
2022/03/14 02:51:08;;;;;;;22.15;10.48;;;0.90;99.90;;;;;;5095684;28;20577;-70
2022/03/14 02:53:33;;;;;;;29.13;10.60;;;0.80;99.90;;;;;;5095679;28;20027;-70
2022/03/14 02:55:59;;;;;;;21.20;9.55;;;0.70;99.90;;;;;;5095634;28;20073;-70
2022/03/14 02:58:29;;;;;;;22.25;9.90;;;0.70;99.90;;;;;;5095726;28;20044;-70
2022/03/14 03:00:55;;;;;;;20.00;10.13;;;0.70;99.90;;;;;;5095952;28;20012;-70
2022/03/14 03:03:21;;;;;;;21.48;10.20;;;0.60;99.90;;;;;;5095755;28;20420;-70
2022/03/14 03:05:46;;;;;;;19.48;11.02;;;0.50;99.90;;;;;;5094094;28;20070;-70
2022/03/14 03:08:13;;;;;;;18.58;9.15;;;0.50;99.90;;;;;;5095397;28;20022;-70
2022/03/14 03:10:39;;;;;;;22.35;8.73;;;0.40;99.90;;;;;;5095333;28;20407;-70
2022/03/14 03:13:05;;;;;;;23.17;9.55;;;0.40;99.90;;;;;;5095285;28;20111;-70
2022/03/14 03:15:31;;;;;;;22.80;9.48;;;0.40;99.90;;;;;;5095194;28;20024;-70
2022/03/14 03:17:56;;;;;;;22.77;9.68;;;0.30;99.90;;;;;;5095113;28;20025;-70
2022/03/14 03:20:22;;;;;;;20.90;10.20;;;0.30;99.90;;;;;;5095119;28;20038;-70
2022/03/14 03:22:49;;;;;;;18.90;9.02;;;0.40;99.90;;;;;;5113919;22;20083;-70
2022/03/14 03:25:16;;;;;;;18.10;8.98;;;0.40;99.90;;;;;;5074408;28;20024;-69
2022/03/14 03:27:42;;;;;;;25.38;10.05;;;0.30;99.90;;;;;;5074044;28;20021;-69
2022/03/14 03:30:08;;;;;;;24.42;10.88;;;0.30;99.90;;;;;;5074007;28;20032;-69
2022/03/14 03:32:34;;;;;;;27.67;10.18;;;0.30;99.90;;;;;;5073900;28;20559;-69
2022/03/14 03:35:00;;;;;;;21.05;9.52;;;0.20;99.90;;;;;;5074194;28;20060;-69
2022/03/14 03:37:25;;;;;;;22.73;10.13;;;0.20;99.90;;;;;;5073876;28;20060;-69
2022/03/14 03:39:51;;;;;;;18.00;9.48;;;0.20;99.90;;;;;;5073872;28;20064;-69
2022/03/14 03:42:17;;;;;;;20.48;9.10;;;0.10;99.90;;;;;;5074262;28;20032;-69
2022/03/14 03:44:43;;;;;;;21.98;10.13;;;0.10;99.90;;;;;;5074261;28;20099;-69
2022/03/14 03:47:08;;;;;;;20.52;9.65;;;0.10;99.90;;;;;;5073747;28;20101;-69
2022/03/14 03:49:35;;;;;;;22.63;9.40;;;0.10;99.90;;;;;;5073956;28;20460;-69
2022/03/14 03:52:01;;;;;;;23.92;10.70;;;0.10;99.90;;;;;;5073941;28;20024;-69
2022/03/14 03:54:26;;;;;;;29.20;9.80;;;0.10;99.90;;;;;;5073235;28;20021;-69
2022/03/14 03:56:52;;;;;;;20.75;10.25;;;0.10;99.90;;;;;;5073569;28;20032;-69
2022/03/14 03:59:18;;;;;;;23.55;10.13;;;0.00;99.90;;;;;;5073593;28;20070;-69
2022/03/14 04:01:44;;;;;;;28.20;11.43;;;0.00;99.90;;;;;;5073454;28;20024;-69
2022/03/14 04:04:11;;;;;;;19.13;10.18;;;0.00;99.90;;;;;;5073453;28;20020;-69
2022/03/14 04:06:37;;;;;;;29.35;10.93;;;0.00;99.90;;;;;;5073479;28;20012;-69
2022/03/14 04:09:03;;;;;;;20.98;9.43;;;0.10;99.90;;;;;;5073486;28;20502;-69
2022/03/14 04:11:29;;;;;;;24.30;10.57;;;0.30;99.90;;;;;;5073715;28;20032;-69
2022/03/14 04:13:58;;;;;;;19.15;10.15;;;0.30;99.90;;;;;;5073320;28;20031;-69
2022/03/14 04:16:26;;;;;;;23.42;9.63;;;0.30;99.90;;;;;;5073352;28;20093;-69
2022/03/14 04:18:52;;;;;;;24.40;10.55;;;0.50;99.90;;;;;;5073354;28;20024;-69
2022/03/14 04:21:18;;;;;;;26.95;10.05;;;0.60;99.90;;;;;;5073212;28;20027;-69
2022/03/14 04:23:43;;;;;;;23.13;11.20;;;0.60;99.90;;;;;;5073126;28;20038;-70
2022/03/14 04:26:09;;;;;;;21.90;10.13;;;0.60;99.90;;;;;;5073388;28;20099;-70
2022/03/14 04:28:36;;;;;;;23.95;10.60;;;0.70;99.90;;;;;;5073254;28;20472;-69
2022/03/14 04:31:08;;;;;;;28.65;12.82;;;0.70;99.90;;;;;;5073488;28;20024;-69
2022/03/14 04:33:34;;;;;;;22.98;10.98;;;0.60;99.90;;;;;;5073150;28;20024;-69
2022/03/14 04:36:00;;;;;;;20.60;10.73;;;0.50;99.90;;;;;;5073199;28;20029;-69
2022/03/14 04:38:27;;;;;;;20.75;10.68;;;0.40;99.90;;;;;;5073170;28;20021;-69
2022/03/14 04:40:53;;;;;;;27.60;11.75;;;0.40;99.90;;;;;;5073342;28;20066;-69
2022/03/14 04:43:21;;;;;;;18.15;8.85;;;0.30;99.90;;;;;;5073033;28;20528;-69
2022/03/14 04:45:47;;;;;;;21.50;10.32;;;0.30;99.90;;;;;;5073030;28;20477;-69
2022/03/14 04:48:13;;;;;;;22.80;10.93;;;0.20;99.90;;;;;;5073048;28;20031;-69
2022/03/14 04:50:39;;;;;;;19.95;11.23;;;0.20;99.90;;;;;;5073346;28;20372;-69
2022/03/14 04:53:06;;;;;;;24.52;10.20;;;0.20;99.90;;;;;;5073216;28;20107;-69
2022/03/14 04:55:34;;;;;;;22.77;11.27;;;0.20;99.90;;;;;;5073254;28;20050;-69
2022/03/14 04:58:00;;;;;;;29.35;12.43;;;0.30;99.90;;;;;;5072965;28;20021;-69
2022/03/14 05:00:27;;;;;;;21.85;10.38;;;0.30;99.90;;;;;;5072911;28;20028;-69
2022/03/14 05:02:58;;;;;;;20.38;10.40;;;0.30;99.90;;;;;;5072793;28;20063;-69
2022/03/14 05:05:24;;;;;;;22.00;10.70;;;0.30;99.90;;;;;;5073454;28;20016;-69
2022/03/14 05:07:50;;;;;;;31.65;12.18;;;0.30;99.90;;;;;;5075389;28;20031;-69
2022/03/14 05:10:15;;;;;;;23.42;11.77;;;0.20;99.90;;;;;;5076613;28;20507;-69
2022/03/14 05:12:41;;;;;;;22.42;10.82;;;0.20;99.90;;;;;;5076561;28;20039;-69
2022/03/14 05:15:07;;;;;;;22.58;11.43;;;0.10;99.90;;;;;;5076612;28;20023;-69
2022/03/14 05:17:34;;;;;;;24.60;11.98;;;0.10;99.90;;;;;;5076562;28;20031;-69
2022/03/14 05:19:59;;;;;;;24.67;11.27;;;0.10;99.90;;;;;;5076530;28;20025;-69
2022/03/14 05:22:25;;;;;;;28.23;11.05;;;0.10;99.90;;;;;;5076382;28;20070;-69
2022/03/14 05:24:51;;;;;;;26.88;11.60;;;0.10;99.90;;;;;;5076236;28;20033;-69
2022/03/14 05:27:17;;;;;;;22.00;11.13;;;0.20;99.90;;;;;;5076375;28;20021;-69
2022/03/14 05:29:42;;;;;;;21.13;11.15;;;0.30;99.90;;;;;;5076360;28;20028;-69
2022/03/14 05:32:08;;;;;;;26.35;11.15;;;0.30;99.90;;;;;;5076849;28;20017;-69
2022/03/14 05:34:35;;;;;;;26.65;10.27;;;0.30;99.90;;;;;;5076135;28;20028;-70
2022/03/14 05:37:01;;;;;;;30.02;11.10;;;0.30;99.90;;;;;;5076206;28;20056;-70
2022/03/14 05:39:27;;;;;;;27.13;11.35;;;0.30;99.90;;;;;;5076468;28;20024;-70
2022/03/14 05:41:52;;;;;;;26.42;10.27;;;0.40;99.90;;;;;;5076000;28;20036;-70
2022/03/14 05:44:18;;;;;;;32.50;11.32;;;0.50;99.90;;;;;;5076047;28;20028;-70
2022/03/14 05:46:44;;;;;;;19.52;10.65;;;0.60;99.90;;;;;;5076239;28;20158;-69
2022/03/14 05:49:09;;;;;;;28.13;11.30;;;0.70;99.90;;;;;;5076287;28;20107;-69
2022/03/14 05:51:37;;;;;;;25.52;10.88;;;0.70;99.90;;;;;;5075962;28;20028;-69
2022/03/14 05:54:03;;;;;;;25.33;10.25;;;0.70;99.90;;;;;;5075955;28;20021;-70
2022/03/14 05:56:29;;;;;;;26.02;11.15;;;0.70;99.90;;;;;;5075916;28;20029;-70
2022/03/14 05:58:55;;;;;;;30.40;12.30;;;0.60;99.90;;;;;;5075767;28;20025;-70
2022/03/14 06:01:22;;;;;;;25.13;11.38;;;0.50;99.90;;;;;;5075704;28;20547;-70
2022/03/14 06:03:51;;;;;;;20.20;10.40;;;0.40;99.90;;;;;;5076415;28;20108;-70
2022/03/14 06:06:16;;;;;;;29.58;10.98;;;0.40;99.90;;;;;;5076244;28;20013;-70
2022/03/14 06:08:42;;;;;;;28.50;12.00;;;0.40;99.90;;;;;;5075766;28;20032;-69
2022/03/14 06:11:08;;;;;;;25.25;12.15;;;0.40;99.90;;;;;;5075583;28;20078;-69
2022/03/14 06:13:34;;;;;;;26.73;11.88;;;0.40;99.90;;;;;;5075541;28;20020;-69
2022/03/14 06:16:00;;;;;;;28.20;11.55;;;0.50;99.90;;;;;;5075523;28;20017;-69
2022/03/14 06:18:26;;;;;;;21.98;10.50;;;0.50;99.90;;;;;;5075510;28;20028;-69
2022/03/14 06:20:51;;;;;;;27.88;11.55;;;0.70;99.90;;;;;;5075696;28;20036;-69
2022/03/14 06:23:17;;;;;;;29.75;12.52;;;0.70;99.90;;;;;;5075066;28;20064;-70
2022/03/14 06:25:43;;;;;;;25.80;11.38;;;0.90;99.90;;;;;;5075325;28;20067;-70
2022/03/14 06:28:08;;;;;;;26.58;11.30;;;1.10;99.90;;;;;;5075579;28;20029;-70
2022/03/14 06:30:34;;;;;;;25.13;11.82;;;1.30;99.90;;;;;;5075255;28;20021;-70
2022/03/14 06:33:00;;;;;;;26.67;11.50;;;1.40;99.90;;;;;;5075108;28;20036;-70
2022/03/14 06:35:25;;;;;;;21.58;11.45;;;1.50;99.90;;;;;;5075140;28;20472;-70
2022/03/14 06:37:51;;;;;;;27.20;11.23;;;1.70;99.90;;;;;;5075052;28;20483;-70
2022/03/14 06:40:17;;;;;;;23.95;11.43;;;2.00;99.90;;;;;;5075281;28;20031;-70
2022/03/14 06:42:49;;;;;;;33.92;12.63;;;2.20;99.90;;;;;;5074944;28;20086;-70
2022/03/14 06:45:22;;;;;;;25.75;11.93;;;2.40;99.90;;;;;;5075187;28;20074;-70
2022/03/14 06:47:48;;;;;;;24.80;11.48;;;2.60;99.90;;;;;;5074940;28;20024;-70
2022/03/14 06:50:14;;;;;;;24.10;11.05;;;2.80;99.90;;;;;;5074834;28;20207;-70
2022/03/14 06:52:40;;;;;;;21.80;10.57;;;3.00;99.90;;;;;;5075032;28;20162;-70
2022/03/14 06:55:06;;;;;;;24.13;10.93;;;3.20;99.90;;;;;;5074741;28;20543;-70
2022/03/14 06:57:32;;;;;;;18.15;9.52;;;3.40;99.90;;;;;;5074670;28;20135;-70
2022/03/14 06:59:58;;;;;;;21.73;10.25;;;3.60;99.90;;;;;;5074647;28;20074;-70
2022/03/14 07:02:29;;;;;;;27.73;12.82;;;3.90;99.90;;;;;;5074484;28;20036;-70
2022/03/14 07:04:55;;;;;;;23.08;10.52;;;4.00;99.90;;;;;;5074797;28;20029;-70
2022/03/14 07:07:21;;;;;;;20.95;10.63;;;4.30;99.90;;;;;;5074546;28;20047;-70
2022/03/14 07:09:46;;;;;;;29.05;12.27;;;4.40;99.90;;;;;;5074752;28;20032;-70
2022/03/14 07:12:12;;;;;;;24.42;11.48;;;4.60;99.90;;;;;;5074416;28;20392;-70
2022/03/14 07:14:38;;;;;;;29.73;11.18;;;4.80;99.90;;;;;;5074343;28;20024;-70
2022/03/14 07:17:04;;;;;;;22.67;11.98;;;5.00;99.90;;;;;;5074615;28;20430;-71
2022/03/14 07:19:30;;;;;;;23.00;11.00;;;5.20;99.90;;;;;;5074801;28;20032;-70
2022/03/14 07:21:56;;;;;;;26.40;10.85;;;5.40;99.90;;;;;;5074429;28;20024;-70
2022/03/14 07:24:21;;;;;;;28.27;12.00;;;5.50;99.90;;;;;;5073988;28;20036;-71
2022/03/14 07:26:47;;;;;;;22.90;11.10;;;5.60;99.90;;;;;;5074145;28;20021;-70
2022/03/14 07:29:13;;;;;;;20.25;10.45;;;5.70;99.90;;;;;;5073570;28;20460;-70
2022/03/14 07:31:41;;;;;;;22.30;10.57;;;5.80;99.90;;;;;;5074466;28;20411;-70
2022/03/14 07:34:07;;;;;;;25.88;11.18;;;5.90;99.90;;;;;;5073946;28;20472;-70
2022/03/14 07:36:34;;;;;;;26.00;12.40;;;5.90;99.90;;;;;;5074009;28;20060;-71
2022/03/14 07:39:04;;;;;;;27.20;11.50;;;5.90;99.90;;;;;;5073897;28;20078;-70
2022/03/14 07:41:30;;;;;;;24.63;11.52;;;6.00;99.90;;;;;;5074303;28;20063;-70
2022/03/14 07:43:55;;;;;;;23.52;11.95;;;6.00;99.90;;;;;;5073784;28;20024;-70
2022/03/14 07:46:22;;;;;;;20.35;10.55;;;6.00;99.90;;;;;;5074151;28;20049;-70
2022/03/14 07:48:48;;;;;;;18.80;10.65;;;6.00;99.90;;;;;;5073837;28;20407;-70
2022/03/14 07:51:14;;;;;;;28.50;11.52;;;6.00;99.90;;;;;;5073696;28;20031;-70
2022/03/14 07:53:40;;;;;;;24.10;12.77;;;6.00;99.90;;;;;;5073624;28;20021;-70
2022/03/14 07:56:06;;;;;;;25.10;12.75;;;6.00;99.90;;;;;;5073579;28;20483;-70
2022/03/14 07:58:31;;;;;;;25.35;11.43;;;6.10;99.90;;;;;;5073861;28;20040;-70
2022/03/14 08:00:57;;;;;;;22.08;10.45;;;6.20;99.90;;;;;;5073838;28;20044;-70
2022/03/14 08:03:23;;;;;;;30.58;12.25;;;6.20;99.90;;;;;;5073430;28;20115;-70
2022/03/14 08:05:53;;;;;;;27.10;11.43;;;6.20;99.90;;;;;;5073552;28;20070;-70
2022/03/14 08:08:19;;;;;;;24.10;12.13;;;6.30;99.90;;;;;;5073591;28;20016;-70
2022/03/14 08:10:45;;;;;;;26.50;12.35;;;6.40;99.90;;;;;;5073465;28;20032;-70
2022/03/14 08:13:11;;;;;;;25.40;12.45;;;6.60;99.90;;;;;;5073404;28;20020;-70
2022/03/14 08:15:36;;;;;;;23.08;12.15;;;6.80;99.90;;;;;;5073400;28;20115;-70
2022/03/14 08:18:05;;;;;;;26.15;12.25;;;6.90;99.90;;;;;;5073426;28;20468;-69
2022/03/14 08:20:32;;;;;;;24.80;11.88;;;7.10;99.90;;;;;;5073637;28;20045;-69
2022/03/14 08:22:59;;;;;;;24.98;12.15;;;7.30;99.90;;;;;;5073202;28;20090;-70
2022/03/14 08:25:25;;;;;;;24.35;11.88;;;7.40;99.90;;;;;;5073355;28;20047;-70
2022/03/14 08:27:52;;;;;;;22.35;11.60;;;7.50;99.90;;;;;;5073261;28;20025;-69
2022/03/14 08:30:18;;;;;;;26.48;13.02;;;7.50;99.90;;;;;;5073290;28;20017;-69
2022/03/14 08:32:44;;;;;;;32.33;12.38;;;7.40;99.90;;;;;;5071918;28;20020;-70
2022/03/14 08:35:11;;;;;;;27.42;13.88;;;7.30;99.90;;;;;;5073231;28;20032;-70
2022/03/14 08:37:38;;;;;;;30.15;11.95;;;7.30;99.90;;;;;;5073153;28;20095;-70
2022/03/14 08:40:07;;;;;;;29.70;12.40;;;7.40;99.90;;;;;;5073135;28;20056;-70
2022/03/14 08:42:34;;;;;;;21.20;11.60;;;7.40;99.90;;;;;;5076770;28;20082;-70
2022/03/14 08:44:59;;;;;;;24.10;11.75;;;7.50;99.90;;;;;;5077237;28;20107;-70
2022/03/14 08:47:25;;;;;;;24.38;12.48;;;7.60;99.90;;;;;;5077177;28;20436;-70
2022/03/14 08:49:51;;;;;;;29.50;13.20;;;7.70;99.90;;;;;;5077104;28;20094;-70
2022/03/14 08:52:16;;;;;;;26.83;12.57;;;7.90;99.90;;;;;;5077062;28;20025;-70
2022/03/14 08:54:42;;;;;;;23.58;12.57;;;8.20;99.90;;;;;;5076959;28;20028;-70
2022/03/14 08:57:08;;;;;;;27.90;12.18;;;8.60;99.90;;;;;;5077019;28;20066;-70
2022/03/14 08:59:33;;;;;;;24.60;12.43;;;8.90;99.90;;;;;;5076443;28;20021;-70
2022/03/14 09:01:59;;;;;;;30.63;12.63;;;9.20;99.90;;;;;;5076840;28;20391;-70
2022/03/14 09:04:24;;;;;;;21.98;11.77;;;9.60;99.90;;;;;;5077053;28;20468;-70
2022/03/14 09:06:50;;;;;;;33.53;12.57;;;9.80;99.90;;;;;;5075567;28;20055;-70
2022/03/14 09:09:16;;;;;;;25.70;11.65;;;9.80;99.90;;;;;;5077142;28;20104;-70
2022/03/14 09:11:44;;;;;;;28.88;12.40;;;9.70;99.90;;;;;;5076741;28;20036;-73
2022/03/14 09:14:09;;;;;;;24.05;11.65;;;9.60;99.90;;;;;;5076767;28;20021;-73
2022/03/14 09:16:35;;;;;;;20.95;11.73;;;9.40;99.90;;;;;;5076682;28;20035;-73
2022/03/14 09:19:01;;;;;;;24.10;11.68;;;9.20;99.90;;;;;;5076702;28;20028;-73
2022/03/14 09:21:27;;;;;;;22.27;11.52;;;9.10;99.90;;;;;;5077089;28;20032;-73
2022/03/14 09:23:53;;;;;;;24.00;12.23;;;9.00;99.90;;;;;;5113568;23;20045;-71
2022/03/14 09:26:19;;;;;;;28.35;12.55;;;9.00;99.90;;;;;;5077346;28;20020;-71
2022/03/14 09:28:45;;;;;;;24.60;11.95;;;9.10;99.90;;;;;;5077516;28;20403;-71
2022/03/14 09:31:12;;;;;;;20.00;11.10;;;9.00;99.90;;;;;;5077425;28;20107;-71
2022/03/14 09:33:38;;;;;;;18.70;10.98;;;9.10;99.90;;;;;;5075732;28;20028;-71
2022/03/14 09:36:04;;;;;;;24.75;11.23;;;9.30;99.90;;;;;;5076960;28;20074;-71
2022/03/14 09:38:29;;;;;;;23.60;11.23;;;9.30;99.90;;;;;;5077125;28;20040;-71
2022/03/14 09:40:58;;;;;;;23.33;10.38;;;9.40;99.90;;;;;;5076980;28;20396;-71
2022/03/14 09:43:25;;;;;;;24.92;13.00;;;9.60;99.90;;;;;;5077232;28;20056;-71
2022/03/14 09:45:52;;;;;;;18.30;10.75;;;9.80;99.90;;;;;;5076923;28;20480;-71
2022/03/14 09:48:18;;;;;;;26.05;11.30;;;9.90;99.90;;;;;;5076719;28;20021;-71
2022/03/14 09:50:45;;;;;;;19.60;10.52;;;9.90;99.80;;;;;;5076817;28;20017;-71
2022/03/14 09:53:14;;;;;;;21.90;12.07;;;10.00;99.90;;;;;;5074692;28;20055;-71
2022/03/14 09:55:46;;;;;;;25.08;11.25;;;9.90;99.90;;;;;;5077324;28;20027;-71
2022/03/14 09:58:17;;;;;;;24.30;11.70;;;10.00;99.90;;;;;;5076700;28;20023;-71
2022/03/14 10:00:44;;;;;;;25.25;11.25;;;9.90;99.90;;;;;;5076683;28;20098;-71
2022/03/14 10:03:10;;;;;;;21.38;11.82;;;10.00;99.90;;;;;;5076304;28;20025;-71
2022/03/14 10:05:36;;;;;;;22.05;11.18;;;10.10;99.90;;;;;;5075864;28;20048;-72
2022/03/14 10:08:02;;;;;;;29.52;12.38;;;10.20;99.90;;;;;;5076444;28;20538;-71
2022/03/14 10:10:28;;;;;;;26.10;11.57;;;10.20;99.90;;;;;;5076262;28;20517;-71
2022/03/14 10:12:57;;;;;;;31.80;12.13;;;10.30;99.90;;;;;;5076332;28;20385;-71
2022/03/14 10:15:25;;;;;;;22.08;11.82;;;10.40;99.50;;;;;;5076297;28;20104;-71
2022/03/14 10:17:51;;;;;;;22.05;12.07;;;10.80;99.90;;;;;;5076164;28;20020;-71
2022/03/14 10:20:18;;;;;;;22.23;11.35;;;11.10;99.90;;;;;;5076226;28;20037;-71
2022/03/14 10:22:45;;;;;;;29.73;12.48;;;11.40;99.00;;;;;;5076342;28;20112;-71
2022/03/14 10:25:16;;;;;;;22.52;11.43;;;11.50;99.40;;;;;;5075755;28;20025;-71
2022/03/14 10:27:49;;;;;;;28.92;11.60;;;11.80;99.90;;;;;;5076350;28;20054;-71
2022/03/14 10:30:34;;;;;;;17.35;11.48;;;12.10;99.90;;;;;;5076421;28;20020;-71
2022/03/14 10:33:12;;;;;;;22.10;11.93;;;12.20;98.10;;;;;;5075893;28;20031;-71
2022/03/14 10:35:42;;;;;;;20.90;11.50;;;12.20;97.80;;;;;;5075788;28;20541;-71
2022/03/14 10:38:10;;;;;;;22.60;13.00;;;12.20;99.20;;;;;;5075701;28;20043;-71
2022/03/14 10:40:38;;;;;;;26.52;12.10;;;12.30;99.90;;;;;;5075609;28;20029;-71
2022/03/14 10:43:28;;;;;;;27.90;11.70;;;12.40;98.50;;;;;;5075839;28;20047;-71
2022/03/14 10:45:58;;;;;;;22.88;12.65;;;12.60;99.90;;;;;;5075614;28;20024;-71
2022/03/14 10:48:43;;;;;;;22.52;12.18;;;12.90;99.40;;;;;;5075556;28;20074;-71
2022/03/14 10:51:18;;;;;;;19.95;11.68;;;12.90;99.70;;;;;;5075765;28;20017;-71
2022/03/14 10:53:45;;;;;;;21.55;11.32;;;13.00;98.90;;;;;;5075353;28;20107;-71
2022/03/14 10:56:11;;;;;;;22.98;12.30;;;13.20;99.90;;;;;;5075617;28;20024;-71
2022/03/14 10:58:38;;;;;;;26.83;12.55;;;13.70;99.90;;;;;;5073925;28;20026;-71
2022/03/14 11:01:08;;;;;;;22.27;11.50;;;13.80;98.70;;;;;;5075497;28;20017;-72
2022/03/14 11:03:36;;;;;;;18.75;11.30;;;13.90;99.00;;;;;;5074364;28;20032;-71
2022/03/14 11:06:07;;;;;;;23.80;12.18;;;13.70;99.10;;;;;;5074382;28;20027;-71
2022/03/14 11:08:35;;;;;;;21.13;12.65;;;13.70;98.60;;;;;;5075333;28;20029;-71
2022/03/14 11:11:03;;;;;;;19.33;11.88;;;13.50;98.70;;;;;;5075045;28;20032;-71
2022/03/14 11:13:29;;;;;;;21.42;11.45;;;13.30;99.90;;;;;;5075071;28;20021;-71
2022/03/14 11:15:56;;;;;;;19.50;12.02;;;13.10;99.90;;;;;;5075310;28;20012;-71
2022/03/14 11:18:23;;;;;;;22.60;12.20;;;12.70;99.90;;;;;;5074930;28;20017;-71
2022/03/14 11:20:48;;;;;;;26.92;13.35;;;12.50;99.90;;;;;;5073927;28;20016;-71
2022/03/14 11:23:15;;;;;;;22.00;12.40;;;12.30;99.90;;;;;;5074812;28;20356;-71
2022/03/14 11:25:44;;;;;;;26.05;13.02;;;12.20;99.90;;;;;;5075333;28;20447;-71
2022/03/14 11:28:21;;;;;;;21.60;12.18;;;11.90;99.90;;;;;;5074992;28;20023;-71
2022/03/14 11:30:58;;;;;;;23.83;11.43;;;11.70;99.90;;;;;;5074914;28;20024;-71
2022/03/14 11:33:24;;;;;;;20.88;13.45;;;11.70;99.90;;;;;;5074898;28;20115;-71
2022/03/14 11:35:51;;;;;;;21.73;13.05;;;11.60;99.90;;;;;;5073470;28;20028;-71
2022/03/14 11:38:17;;;;;;;20.48;12.13;;;11.50;99.90;;;;;;5074679;28;20033;-71
2022/03/14 11:40:44;;;;;;;23.35;12.85;;;11.40;99.90;;;;;;5074556;28;20511;-71
2022/03/14 11:43:11;;;;;;;21.52;12.20;;;11.40;99.90;;;;;;5074289;28;20035;-71
2022/03/14 11:45:36;;;;;;;22.10;12.80;;;11.40;99.90;;;;;;5074484;28;20063;-71
2022/03/14 11:48:05;;;;;;;30.77;12.18;;;11.30;99.90;;;;;;5074975;28;20020;-71
2022/03/14 11:50:42;;;;;;;26.20;12.75;;;11.40;99.90;;;;;;5074375;28;20078;-71
2022/03/14 11:53:07;;;;;;;22.60;11.95;;;11.40;99.90;;;;;;5074299;28;20027;-71
2022/03/14 11:55:33;;;;;;;27.98;12.80;;;11.50;99.90;;;;;;5074277;28;20024;-71
2022/03/14 11:57:58;;;;;;;26.95;11.13;;;11.50;99.90;;;;;;5073114;28;20032;-71
2022/03/14 12:00:27;;;;;;;20.75;12.02;;;11.50;99.90;;;;;;5074426;28;20056;-71
2022/03/14 12:03:01;;;;;;;22.65;11.50;;;11.60;99.90;;;;;;5074269;28;20070;-71
2022/03/14 12:05:35;;;;;;;19.40;11.45;;;11.50;99.90;;;;;;5074339;28;20456;-71
2022/03/14 12:08:07;;;;;;;23.05;11.38;;;11.40;99.90;;;;;;5074443;28;20040;-71
2022/03/14 12:10:35;;;;;;;21.02;11.30;;;11.30;99.90;;;;;;5072965;28;20024;-71
2022/03/14 12:13:01;;;;;;;19.65;10.98;;;11.40;99.90;;;;;;5074417;28;20017;-71
2022/03/14 12:15:48;;;;;;;16.88;10.88;;;11.50;99.90;;;;;;5073703;28;20032;-71
2022/03/14 12:18:23;;;;;;;15.45;10.55;;;11.50;99.90;;;;;;5074220;28;20095;-71
2022/03/14 12:20:53;;;;;;;18.27;10.88;;;11.40;99.90;;;;;;5074127;28;20028;-71
2022/03/14 12:23:34;;;;;;;22.30;12.25;;;11.30;99.90;;;;;;5073870;28;20033;-72
2022/03/14 12:26:23;;;;;;;19.08;11.30;;;11.20;99.90;;;;;;5074173;28;20039;-71
2022/03/14 12:28:49;;;;;;;20.80;12.05;;;11.20;99.90;;;;;;5074011;28;20026;-71
2022/03/14 12:31:17;;;;;;;22.77;11.38;;;11.20;99.90;;;;;;5074087;28;20021;-71
2022/03/14 12:33:44;;;;;;;23.45;12.90;;;11.20;99.90;;;;;;5073143;28;20028;-71